Nearby METAR Reports

 

KVTN - Valentine, Nebraska, USA
Distance from station: S 1.3mi, 2.1km
Updated: Tue, 12-Dec-2017 11:52am CST
Clear
Clear
 Wind from WSW
Wind: WSW 7 mph , 11 km/h
Temperature: 45°F , 7°C
Wind Chill: 41°F , 5°C
Dew Point: 21°F , -6°C
Humidity: 39%
Barometer: 30.14 inHg , 1020.7 hPa
Clouds: Clear
Visibility: 10 miles , 16 km
2017/12/12 17:52 KVTN 121752Z AUTO 25006KT 10SM CLR 07/M06 A3014 RMK AO2 SLP222 T00671056 10072 21067 58021 $
KANW - Ainsworth, Nebraska, USA
Distance from station: SE 36mi, 57km
Updated: Tue, 12-Dec-2017 11:55am CST
Clear
Clear
 Wind from W
Wind: W 7 mph , 11 km/h
Temperature: 45°F , 7°C
Wind Chill: 41°F , 5°C
Dew Point: 23°F , -5°C
Humidity: 42%
Barometer: 30.14 inHg , 1020.7 hPa
Clouds: Clear
Visibility: 10 miles , 16 km
2017/12/12 17:55 KANW 121755Z AUTO 27006KT 10SM CLR 07/M05 A3014 RMK AO2 T00741046 10074 21057
 
KICR - Winner, South Dakota, USA
Distance from station: NE 50mi, 80km
Updated: Tue, 12-Dec-2017 11:53am CST
Clear
Clear
 Wind from SW
Wind: SW 12 mph , 19 km/h
Temperature: 46°F , 8°C
Wind Chill: 40°F , 4°C
Dew Point: 27°F , -3°C
Humidity: 46%
Barometer: 30.12 inHg , 1020 hPa
Clouds: Clear
Visibility: 10 miles , 16 km
2017/12/12 17:53 KICR 121753Z AUTO 22010KT 10SM CLR 08/M03 A3012 RMK AO2 PRESFR SLP212 T00781033 10083 21033 58027
KTIF - Thedford, Nebraska, USA
Distance from station: S 63mi, 101km
Updated: Tue, 12-Dec-2017 11:55am CST
Clear
Clear
 Wind from W
Wind: W 9 mph , 15 km/h
Temperature: 48°F , 9°C
Wind Chill: 44°F , 7°C
Dew Point: 23°F , -5°C
Humidity: 37%
Barometer: 30.17 inHg , 1021.7 hPa
Clouds: Clear
Visibility: 10 miles , 16 km
2017/12/12 17:55 KTIF 121755Z AUTO 27008KT 10SM CLR 09/M05 A3017 RMK AO2 T00891052 10089 21066
 
K9V9 - Chamberlain, South Dakota, USA
Distance from station: NE 87mi, 141km
Updated: Tue, 12-Dec-2017 11:55am CST
Clear
Clear
 Wind from SW
Wind: SW 3 mph , 6 km/h
Temperature: 41°F , 5°C
Dew Point: 32°F , 0°C
Humidity: 70%
Barometer: 30.10 inHg , 1019.3 hPa
Clouds: Clear
Visibility: 10 miles , 16 km
2017/12/12 17:55 K9V9 121755Z AUTO 23003KT 10SM CLR 05/00 A3010 RMK AO2 T00491003 10049 21046
KIEN - Pine Ridge, South Dakota, USA
Distance from station: W 99mi, 160km
Updated: Tue, 12-Dec-2017 11:52am CST
Clear
Clear
 Wind from WSW
Wind: WSW 10 mph , 17 km/h
Temperature: 48°F , 9°C
Wind Chill: 44°F , 7°C
Dew Point: 25°F , -4°C
Humidity: 40%
Barometer: 30.16 inHg , 1021.3 hPa
Clouds: Clear
Visibility: 10 miles , 16 km
2017/12/12 17:52 KIEN 121752Z AUTO 24009KT 10SM CLR 09/M04 A3016 RMK AO2 SLP240 T00891044 10089 21067 58016
 
KPIR - Pierre, South Dakota, USA
Distance from station: N 105mi, 169km
Updated: Tue, 12-Dec-2017 11:53am CST
Clear
Clear
 Wind from WSW
Wind: WSW 13 mph , 20 km/h
Temperature: 37°F , 3°C
Wind Chill: 29°F , -2°C
Dew Point: 27°F , -3°C
Humidity: 65%
Barometer: 30.06 inHg , 1017.9 hPa
Clouds: Clear
Visibility: 10 miles , 16 km
2017/12/12 17:53 KPIR 121753Z AUTO 25011KT 10SM CLR 03/M03 A3006 RMK AO2 SLP197 6//// T00281028 10028 21050 58031 PWINO PNO $
KLBF - North Platte, Nebraska, USA
Distance from station: S 120mi, 193km
Updated: Tue, 12-Dec-2017 11:53am CST
Clear
Clear
 Wind from W
Wind: W 7 mph , 11 km/h
Temperature: 43°F , 6°C
Wind Chill: 39°F , 4°C
Dew Point: 21°F , -6°C
Humidity: 42%
Barometer: 30.22 inHg , 1023.4 hPa
Clouds: Clear
Visibility: 10 miles , 16 km
2017/12/12 17:53 KLBF 121753Z AUTO 27006KT 10SM CLR 06/M06 A3022 RMK AO2 SLP255 T00561056 10056 21100 58021
 
KBBW - Broken Bow Muni, Nebraska, USA
Distance from station: SSE 110mi, 177km
Updated: Tue, 12-Dec-2017 11:53am CST
Clear
Clear
 Wind from W
Wind: W 7 mph , 11 km/h
Temperature: 45°F , 7°C
Wind Chill: 41°F , 5°C
Dew Point: 23°F , -5°C
Humidity: 42%
Barometer: 30.18 inHg , 1022 hPa
Clouds: Clear
Visibility: 10 miles , 16 km
2017/12/12 17:53 KBBW 121753Z AUTO 28006KT 10SM CLR 07/M05 A3018 RMK AO2 SLP232 T00721050 10072 21056 58022
KRAP - Rapid City, South Dakota, USA
Distance from station: NW 149mi, 240km
Updated: Tue, 12-Dec-2017 11:52am CST
Smoke, Clear
Smoke, Clear
 Wind from SSE
Wind: SSE 5 mph , 7 km/h
Temperature: 48°F , 9°C
Wind Chill: 46°F , 8°C
Dew Point: 18°F , -8°C
Humidity: 29%
Barometer: 30.11 inHg , 1019.6 hPa
Summary: Smoke
Clouds: Clear
Visibility: 6 miles , 10 km
2017/12/12 17:52 KRAP 121752Z 15004KT 6SM FU CLR 09/M08 A3011 RMK AO2 SLP218 T00941083 10094 21078 58013